Time;durP1;ratioP1;P1;durP2;ratioP2;P2;SDS_P1;SDS_P2;PMS_P1;PMS_P2;Temp;Humidity;BMP_temperature;BMP_pressure;BME280_temperature;BME280_humidity;BME280_pressure;Samples;Min_cycle;Max_cycle;Signal;HPM_P1;HPM_P2
2022/09/07 00:00:08;;;;;;;8.65;1.85;;;;;;;18.59;89.31;100967.53;5074111;28;20037;-57
2022/09/07 00:02:34;;;;;;;12.35;1.80;;;;;;;18.70;88.12;100956.22;5074034;28;20064;-58
2022/09/07 00:05:01;;;;;;;8.93;2.10;;;;;;;18.57;88.11;100973.13;5066317;28;20045;-57
2022/09/07 00:07:28;;;;;;;13.38;2.17;;;;;;;18.56;89.30;100978.69;5052714;28;20049;-58
2022/09/07 00:09:55;;;;;;;13.90;2.22;;;;;;;18.53;91.40;100974.53;5052806;28;20048;-58
2022/09/07 00:12:21;;;;;;;15.30;2.30;;;;;;;18.53;93.54;100985.28;5052741;28;20132;-57
2022/09/07 00:14:48;;;;;;;11.65;2.20;;;;;;;18.57;93.93;100983.88;5035404;28;20445;-57
2022/09/07 00:17:15;;;;;;;12.82;2.08;;;;;;;18.65;91.92;100987.41;5052112;28;20472;-58
2022/09/07 00:19:41;;;;;;;14.13;2.20;;;;;;;18.75;92.09;100979.78;5035260;28;20048;-58
2022/09/07 00:22:08;;;;;;;9.38;1.73;;;;;;;18.72;91.13;100967.59;5042110;28;20059;-57
2022/09/07 00:24:35;;;;;;;16.40;2.38;;;;;;;18.80;91.81;100988.06;5072424;28;20068;-58
2022/09/07 00:27:02;;;;;;;11.88;2.20;;;;;;;18.67;93.11;100972.72;5072933;28;20044;-58
2022/09/07 00:29:29;;;;;;;13.48;2.53;;;;;;;18.74;94.21;100960.16;5072582;28;20080;-58
2022/09/07 00:31:55;;;;;;;12.60;2.40;;;;;;;18.77;94.35;100964.28;5072025;28;20059;-58
2022/09/07 00:34:22;;;;;;;14.05;2.20;;;;;;;18.83;94.57;100950.06;5072543;28;20098;-58
2022/09/07 00:36:49;;;;;;;11.20;2.53;;;;;;;18.89;93.62;100945.75;5073293;28;20048;-58
2022/09/07 00:39:15;;;;;;;9.38;2.17;;;;;;;18.94;94.10;100938.72;5073362;28;20078;-58
2022/09/07 00:41:42;;;;;;;10.27;2.40;;;;;;;18.88;94.11;100936.00;5073708;28;20044;-58
2022/09/07 00:44:49;;;;;;;10.23;2.53;;;;;;;18.85;95.02;100929.19;5073372;28;20486;-58
2022/09/07 00:47:24;;;;;;;9.80;2.53;;;;;;;18.79;94.31;100928.13;5073263;28;20045;-58
2022/09/07 00:49:57;;;;;;;10.52;2.10;;;;;;;18.83;94.69;100917.81;5073564;28;20482;-58
2022/09/07 00:52:27;;;;;;;13.55;2.63;;;;;;;18.78;94.00;100920.25;5073345;28;20047;-58
2022/09/07 00:54:58;;;;;;;13.48;2.28;;;;;;;18.83;95.24;100922.34;5073303;28;20060;-58
2022/09/07 00:57:27;;;;;;;10.45;2.40;;;;;;;18.80;95.35;100913.63;5073610;28;20041;-58
2022/09/07 00:59:54;;;;;;;12.60;2.70;;;;;;;18.90;93.12;100905.22;5073186;28;20056;-58
2022/09/07 01:02:22;;;;;;;8.40;2.40;;;;;;;18.84;94.01;100903.34;5060521;28;20040;-58
2022/09/07 01:04:55;;;;;;;8.70;2.40;;;;;;;18.76;92.43;100898.13;5051512;28;20122;-58
2022/09/07 01:07:23;;;;;;;9.00;2.42;;;;;;;18.73;91.86;100896.69;5051893;28;20487;-58
2022/09/07 01:09:51;;;;;;;9.40;2.60;;;;;;;18.80;93.35;100884.06;5051999;28;20185;-58
2022/09/07 01:12:18;;;;;;;11.75;2.53;;;;;;;18.78;92.67;100885.31;5034840;28;20087;-58
2022/09/07 01:14:49;;;;;;;10.45;2.72;;;;;;;18.79;92.35;100860.94;5051701;28;20450;-58
2022/09/07 01:17:56;;;;;;;9.90;2.55;;;;;;;18.89;94.15;100849.81;5034314;28;20037;-58
2022/09/07 01:20:51;;;;;;;15.07;2.75;;;;;;;18.91;94.00;100838.84;5033942;28;20045;-58
2022/09/07 01:23:57;;;;;;;7.55;2.60;;;;;;;18.76;94.37;100828.28;5068323;28;20060;-58
2022/09/07 01:27:04;;;;;;;9.85;3.08;;;;;;;18.83;94.06;100818.38;5071979;28;20457;-58
2022/09/07 01:29:54;;;;;;;11.13;2.85;;;;;;;18.76;94.82;100822.91;5071461;28;20127;-58
2022/09/07 01:35:28;;;;;;;11.10;3.10;;;;;;;18.78;95.59;100810.91;5108056;27;20125;-56
2022/09/07 01:38:19;;;;;;;10.85;3.30;;;;;;;18.76;96.55;100807.59;5109224;28;20039;-57
2022/09/07 01:41:05;;;;;;;10.23;3.30;;;;;;;18.75;95.98;100811.31;5109762;28;20043;-57
2022/09/07 01:43:58;;;;;;;17.02;3.40;;;;;;;18.70;97.16;100810.28;5109705;28;20043;-58
2022/09/07 01:46:32;;;;;;;14.85;3.55;;;;;;;18.64;97.46;100814.63;5109343;28;20124;-57
2022/09/07 01:49:08;;;;;;;7.20;2.70;;;;;;;18.71;96.27;100820.00;5110311;28;20105;-57
2022/09/07 01:51:40;;;;;;;10.15;2.95;;;;;;;18.65;96.54;100821.66;5109425;28;20462;-57
2022/09/07 01:54:23;;;;;;;9.02;2.88;;;;;;;18.68;96.35;100832.00;5110065;28;20547;-58
2022/09/07 01:56:55;;;;;;;11.40;2.75;;;;;;;18.54;96.97;100839.19;5109979;28;20047;-57
2022/09/07 01:59:37;;;;;;;9.80;3.22;;;;;;;18.60;97.70;100834.88;5110229;28;20044;-57
2022/09/07 02:02:11;;;;;;;9.27;3.50;;;;;;;18.71;96.66;100823.50;5109819;28;20050;-57
2022/09/07 02:04:44;;;;;;;11.40;2.88;;;;;;;18.58;96.52;100832.38;5109090;28;20051;-57
2022/09/07 02:07:31;;;;;;;9.10;3.33;;;;;;;18.55;96.78;100824.72;5110710;28;20100;-57
2022/09/07 02:10:06;;;;;;;9.68;3.08;;;;;;;18.60;97.23;100819.56;5110996;28;20052;-57
2022/09/07 02:12:39;;;;;;;10.50;3.00;;;;;;;18.54;96.30;100814.22;5110330;28;20040;-57
2022/09/07 02:15:13;;;;;;;8.60;3.50;;;;;;;18.56;96.50;100809.47;5110743;28;20126;-57
2022/09/07 02:17:47;;;;;;;11.10;3.78;;;;;;;18.60;96.82;100813.38;5109361;28;20382;-58
2022/09/07 02:20:20;;;;;;;9.85;3.95;;;;;;;18.61;97.30;100812.34;5110300;28;20067;-57
2022/09/07 02:22:52;;;;;;;11.48;3.90;;;;;;;18.52;96.20;100809.03;5110187;28;20040;-57
2022/09/07 02:25:24;;;;;;;11.55;4.22;;;;;;;18.46;97.64;100799.09;5110410;28;20044;-57
2022/09/07 02:27:58;;;;;;;10.55;4.00;;;;;;;18.33;97.57;100788.34;5110154;28;20042;-57
2022/09/07 02:30:26;;;;;;;12.00;4.55;;;;;;;18.41;99.15;100793.53;5110168;28;20047;-57
2022/09/07 02:32:55;;;;;;;10.75;4.70;;;;;;;18.45;99.88;100786.72;5110134;28;20048;-56
2022/09/07 02:35:21;;;;;;;13.40;5.35;;;;;;;18.51;99.39;100785.06;5106745;28;20043;-57
2022/09/07 02:37:51;;;;;;;13.77;5.97;;;;;;;18.51;99.01;100785.06;5109289;28;20044;-57
2022/09/07 02:40:18;;;;;;;14.48;6.57;;;;;;;18.46;98.98;100782.97;5109236;28;20135;-57
2022/09/07 02:42:47;;;;;;;17.33;6.30;;;;;;;18.50;98.66;100780.72;5108675;28;20482;-57
2022/09/07 02:45:15;;;;;;;16.88;7.35;;;;;;;18.50;98.15;100780.72;5103342;28;20367;-57
2022/09/07 02:48:00;;;;;;;14.30;7.20;;;;;;;18.46;97.50;100782.97;5095033;28;20093;-57
2022/09/07 02:50:51;;;;;;;17.88;8.02;;;;;;;18.43;98.55;100778.03;5095092;28;20587;-57
2022/09/07 02:56:44;;;;;;;22.50;9.32;;;;;;;18.39;98.13;100780.31;5109945;27;20876;-57
2022/09/07 02:59:50;;;;;;;19.02;9.27;;;;;;;18.29;97.88;100779.03;5110094;28;20048;-57
2022/09/07 03:02:30;;;;;;;17.42;9.70;;;;;;;18.39;96.85;100785.69;5110092;28;20077;-57
2022/09/07 03:05:15;;;;;;;19.75;10.02;;;;;;;18.20;98.22;100784.59;5109997;28;20040;-57
2022/09/07 03:07:51;;;;;;;20.33;9.07;;;;;;;18.30;97.73;100778.00;5108456;28;20048;-58
2022/09/07 03:10:18;;;;;;;19.60;9.18;;;;;;;18.32;96.89;100773.25;5109845;28;20040;-57
2022/09/07 03:12:48;;;;;;;19.13;8.93;;;;;;;18.32;97.77;100771.41;5109941;28;20047;-57
2022/09/07 03:15:18;;;;;;;25.17;10.85;;;;;;;18.21;98.84;100767.47;5109652;28;20515;-57
2022/09/07 03:17:45;;;;;;;24.38;12.45;;;;;;;18.06;98.53;100768.66;5110202;28;20040;-57
2022/09/07 03:20:13;;;;;;;24.67;12.95;;;;;;;18.14;98.14;100765.81;5109523;28;20040;-57
2022/09/07 03:22:39;;;;;;;26.85;13.52;;;;;;;17.98;99.58;100781.22;5109581;28;20051;-57
2022/09/07 03:25:07;;;;;;;28.40;13.15;;;;;;;18.09;98.90;100781.69;5109582;28;20069;-57
2022/09/07 03:27:33;;;;;;;32.60;13.98;;;;;;;18.06;99.39;100784.75;5109257;28;20048;-57
2022/09/07 03:30:00;;;;;;;23.88;13.75;;;;;;;18.00;99.01;100776.50;5109976;28;20478;-57
2022/09/07 03:32:31;;;;;;;24.20;13.02;;;;;;;17.93;99.34;100781.00;5109088;28;20046;-57
2022/09/07 03:34:58;;;;;;;24.95;13.25;;;;;;;17.94;99.71;100792.59;5097290;28;20040;-57
2022/09/07 03:37:25;;;;;;;26.27;13.38;;;;;;;17.90;100.00;100784.13;5089039;28;20044;-57
2022/09/07 03:39:52;;;;;;;29.52;13.73;;;;;;;17.81;100.00;100783.44;5089816;28;20044;-57
2022/09/07 03:42:20;;;;;;;26.73;13.27;;;;;;;17.90;100.00;100776.06;5090193;28;20052;-57
2022/09/07 03:44:48;;;;;;;27.63;13.50;;;;;;;17.88;100.00;100780.78;5089854;28;20115;-57
2022/09/07 03:47:16;;;;;;;28.15;12.77;;;;;;;17.90;99.88;100780.59;5089965;28;20048;-57
2022/09/07 03:49:43;;;;;;;23.27;12.80;;;;;;;17.80;100.00;100779.06;5090171;28;20048;-56
2022/09/07 03:52:10;;;;;;;24.85;13.20;;;;;;;17.79;100.00;100780.13;5088686;28;20048;-57
2022/09/07 03:54:37;;;;;;;31.73;14.00;;;;;;;17.74;100.00;100773.69;5089362;28;20044;-57
2022/09/07 03:57:05;;;;;;;25.85;12.52;;;;;;;17.62;100.00;100770.75;5089668;28;20445;-57
2022/09/07 03:59:31;;;;;;;24.00;12.70;;;;;;;17.69;100.00;100773.47;5089518;28;20044;-57
2022/09/07 04:01:58;;;;;;;29.15;13.68;;;;;;;17.67;100.00;100775.53;5089849;28;20044;-57
2022/09/07 04:04:25;;;;;;;27.58;13.57;;;;;;;17.72;100.00;100776.59;5089561;28;20045;-57
2022/09/07 04:06:52;;;;;;;23.88;12.05;;;;;;;17.66;100.00;100777.38;5079906;28;20090;-57
2022/09/07 04:09:19;;;;;;;23.95;12.98;;;;;;;17.65;100.00;100765.81;5088990;28;20048;-57
2022/09/07 04:11:45;;;;;;;25.35;13.25;;;;;;;17.63;100.00;100769.75;5095048;28;20109;-57
2022/09/07 04:14:12;;;;;;;29.55;13.43;;;;;;;17.58;100.00;100777.56;5095093;28;20051;-57
2022/09/07 04:16:39;;;;;;;24.15;11.65;;;;;;;17.56;100.00;100772.38;5094999;28;20035;-57
2022/09/07 04:19:05;;;;;;;24.30;12.70;;;;;;;17.63;100.00;100772.41;5094877;28;20101;-57
2022/09/07 04:21:33;;;;;;;28.25;13.95;;;;;;;17.59;100.00;100780.03;5094912;28;20056;-57
2022/09/07 04:24:00;;;;;;;27.40;13.73;;;;;;;17.59;100.00;100779.19;5094348;28;20073;-57
2022/09/07 04:26:29;;;;;;;29.42;14.73;;;;;;;17.68;100.00;100772.63;5095119;28;20141;-57
2022/09/07 04:28:57;;;;;;;29.58;15.23;;;;;;;17.55;100.00;100767.22;5094236;28;20040;-57
2022/09/07 04:31:24;;;;;;;29.63;15.57;;;;;;;17.53;100.00;100766.59;5094781;28;20430;-57
2022/09/07 04:33:53;;;;;;;29.40;15.85;;;;;;;17.55;100.00;100757.31;5094926;28;20399;-57
2022/09/07 04:36:21;;;;;;;33.15;16.77;;;;;;;17.54;100.00;100766.38;5094179;28;20036;-57
2022/09/07 04:38:54;;;;;;;32.65;16.80;;;;;;;17.35;100.00;100767.13;5094548;28;20105;-57
2022/09/07 04:41:21;;;;;;;29.08;16.40;;;;;;;17.37;100.00;100768.59;5095903;28;20052;-57
2022/09/07 04:43:53;;;;;;;35.70;16.65;;;;;;;17.52;100.00;100762.22;5095379;28;20040;-57
2022/09/07 04:46:21;;;;;;;;;;;;;;;17.41;100.00;100756.44;5095802;28;20035;-57
2022/09/07 04:48:53;;;;;;;31.35;15.27;;;;;;;17.48;100.00;100761.81;5095611;28;19920;-57
2022/09/07 04:51:23;;;;;;;30.63;16.08;;;;;;;17.49;100.00;100760.78;5095475;28;20077;-57
2022/09/07 04:53:52;;;;;;;31.65;17.00;;;;;;;17.46;100.00;100755.81;5095914;28;20044;-57
2022/09/07 04:56:20;;;;;;;28.17;16.13;;;;;;;17.48;100.00;100753.75;5095189;28;20097;-57
2022/09/07 04:58:47;;;;;;;27.30;15.90;;;;;;;17.41;100.00;100748.38;5095468;28;20477;-57
2022/09/07 05:01:16;;;;;;;34.90;15.45;;;;;;;17.45;100.00;100748.81;5094874;28;20048;-57
2022/09/07 05:03:43;;;;;;;33.05;16.88;;;;;;;17.44;100.00;100748.00;5094951;28;20046;-57
2022/09/07 05:06:11;;;;;;;34.38;16.35;;;;;;;17.41;100.00;100756.44;5093863;28;20097;-57
2022/09/07 05:08:40;;;;;;;33.20;17.83;;;;;;;17.39;100.00;100763.84;5092023;28;20482;-57
2022/09/07 05:11:08;;;;;;;32.15;16.88;;;;;;;17.40;100.00;100765.50;5093762;28;20044;-57
2022/09/07 05:13:36;;;;;;;30.42;16.83;;;;;;;17.43;100.00;100766.97;5094004;28;20079;-57
2022/09/07 05:16:08;;;;;;;34.58;17.10;;;;;;;17.50;100.00;100756.25;5093572;28;20069;-57
2022/09/07 05:18:36;;;;;;;29.90;16.35;;;;;;;17.46;100.00;100756.66;5091173;28;20056;-57
2022/09/07 05:21:11;;;;;;;34.95;17.08;;;;;;;17.56;100.00;100766.19;5093723;28;20079;-57
2022/09/07 05:23:38;;;;;;;29.67;16.08;;;;;;;17.56;99.42;100767.00;5093330;28;20036;-58
2022/09/07 05:26:05;;;;;;;28.90;14.75;;;;;;;17.51;98.54;100765.97;5093138;28;20089;-57
2022/09/07 05:28:33;;;;;;;36.67;16.23;;;;;;;17.45;99.70;100759.53;5093265;28;20402;-57
2022/09/07 05:31:05;;;;;;;34.55;15.63;;;;;;;17.42;99.78;100752.72;5093188;28;20040;-57
2022/09/07 05:33:45;;;;;;;35.45;16.30;;;;;;;17.50;100.00;100759.78;5092531;28;20486;-57
2022/09/07 05:36:32;;;;;;;36.05;17.17;;;;;;;17.53;100.00;100762.03;5107217;28;20035;-58
2022/09/07 05:38:58;;;;;;;29.65;15.48;;;;;;;17.43;100.00;100770.47;5113820;28;20092;-59
2022/09/07 05:41:26;;;;;;;33.28;15.25;;;;;;;17.54;100.00;100766.38;5114066;28;20063;-58
2022/09/07 05:43:53;;;;;;;31.30;15.98;;;;;;;17.63;99.54;100762.50;5112709;28;20047;-58
2022/09/07 05:46:40;;;;;;;32.70;15.30;;;;;;;17.67;100.00;100765.63;5085340;28;20035;-58
2022/09/07 05:49:07;;;;;;;33.33;16.00;;;;;;;17.80;100.00;100759.47;5114304;28;20040;-58
2022/09/07 05:51:35;;;;;;;34.72;16.33;;;;;;;17.88;99.82;100766.53;5114041;28;20138;-58
2022/09/07 05:54:03;;;;;;;33.30;16.13;;;;;;;17.96;99.65;100759.16;5107841;28;20062;-57
2022/09/07 05:56:34;;;;;;;37.58;17.80;;;;;;;17.86;100.00;100764.06;5092831;28;20044;-57
2022/09/07 05:59:00;;;;;;;32.33;16.50;;;;;;;17.90;99.55;100772.53;5094089;28;20044;-57
2022/09/07 06:01:27;;;;;;;30.95;16.67;;;;;;;18.03;100.00;100767.22;5094051;28;20408;-58
2022/09/07 06:03:54;;;;;;;34.47;15.68;;;;;;;18.15;99.04;100770.13;5092293;28;20044;-58
2022/09/07 06:06:21;;;;;;;33.97;16.55;;;;;;;18.11;98.84;100767.03;5093427;28;20126;-58
2022/09/07 06:08:51;;;;;;;29.45;14.48;;;;;;;18.13;99.33;100770.31;5091398;28;20044;-58
2022/09/07 06:11:20;;;;;;;33.75;15.52;;;;;;;18.14;99.05;100768.50;5093074;28;20397;-57
2022/09/07 06:13:47;;;;;;;31.42;15.30;;;;;;;18.12;98.82;100776.75;5091349;28;20161;-57
2022/09/07 06:16:15;;;;;;;27.27;14.50;;;;;;;18.15;99.74;100787.06;5092473;28;20044;-58
2022/09/07 06:18:44;;;;;;;28.75;15.77;;;;;;;18.21;100.00;100780.88;5092433;28;20219;-58
2022/09/07 06:21:14;;;;;;;28.63;15.25;;;;;;;18.16;98.90;100794.09;5092993;28;20056;-58
2022/09/07 06:23:42;;;;;;;31.85;16.25;;;;;;;18.12;99.25;100800.91;5092389;28;20105;-58
2022/09/07 06:26:10;;;;;;;32.13;16.17;;;;;;;18.10;99.29;100796.75;5092142;28;20040;-58
2022/09/07 06:28:40;;;;;;;30.88;16.65;;;;;;;18.13;99.71;100802.53;5092454;28;20051;-58
2022/09/07 06:31:10;;;;;;;33.20;17.27;;;;;;;18.13;99.86;100797.16;5092303;28;20051;-58
2022/09/07 06:33:39;;;;;;;28.55;16.75;;;;;;;18.10;99.80;100802.97;5090553;28;20127;-59
2022/09/07 06:36:10;;;;;;;32.03;17.20;;;;;;;18.26;98.81;100807.13;5091385;28;20040;-57
2022/09/07 06:38:38;;;;;;;33.22;18.40;;;;;;;18.31;99.39;100801.16;5092433;28;20044;-58
2022/09/07 06:41:07;;;;;;;30.67;18.17;;;;;;;18.39;99.40;100801.78;5093195;28;20036;-58
2022/09/07 06:43:55;;;;;;;38.53;17.55;;;;;;;18.33;99.50;100788.34;5092375;28;20446;-58
2022/09/07 06:46:23;;;;;;;34.60;18.77;;;;;;;18.38;99.80;100804.69;5093144;28;20554;-58
2022/09/07 06:49:10;;;;;;;32.58;17.98;;;;;;;18.51;99.68;100806.56;5081443;28;20039;-57
2022/09/07 06:51:37;;;;;;;34.47;17.73;;;;;;;18.35;100.00;100813.94;5078453;28;20044;-57
2022/09/07 06:54:04;;;;;;;34.90;17.00;;;;;;;18.50;100.00;100821.84;5078614;28;20048;-57
2022/09/07 06:56:51;;;;;;;35.45;18.98;;;;;;;18.66;98.98;100830.53;5084576;28;20482;-58
2022/09/07 06:59:17;;;;;;;30.80;18.33;;;;;;;18.77;99.23;100836.13;5093014;28;20402;-58
2022/09/07 07:01:44;;;;;;;34.08;18.02;;;;;;;18.77;98.35;100832.59;5073566;28;20040;-59
2022/09/07 07:04:12;;;;;;;33.95;17.50;;;;;;;18.87;97.23;100837.63;5087247;28;20048;-58
2022/09/07 07:06:39;;;;;;;36.10;17.90;;;;;;;18.99;97.16;100844.00;5078219;28;20527;-58
2022/09/07 07:09:09;;;;;;;26.63;15.40;;;;;;;18.94;95.21;100836.56;5079889;28;20089;-58
2022/09/07 07:11:37;;;;;;;29.02;15.65;;;;;;;18.87;96.76;100841.13;5093394;28;20044;-58
2022/09/07 07:14:03;;;;;;;26.05;15.25;;;;;;;18.70;95.71;100845.19;5083024;28;20037;-58
2022/09/07 07:16:30;;;;;;;27.23;13.98;;;;;;;18.79;95.90;100849.34;5068762;28;20098;-58
2022/09/07 07:18:57;;;;;;;23.65;12.80;;;;;;;18.76;93.54;100850.59;5100358;28;20044;-57
2022/09/07 07:21:24;;;;;;;23.35;12.52;;;;;;;18.88;93.10;100858.06;5092893;28;20044;-57
2022/09/07 07:23:52;;;;;;;25.52;10.93;;;;;;;18.71;92.21;100861.13;5087553;28;20109;-57
2022/09/07 07:26:22;;;;;;;22.95;9.73;;;;;;;18.66;92.14;100852.84;5097969;28;20064;-57
2022/09/07 07:28:50;;;;;;;21.20;9.50;;;;;;;18.65;92.66;100855.75;5092412;28;20052;-58
2022/09/07 07:31:33;;;;;;;20.50;10.32;;;;;;;18.67;95.02;100854.50;5073437;28;20036;-58
2022/09/07 07:34:02;;;;;;;24.20;10.40;;;;;;;18.74;95.22;100854.53;5085344;28;20487;-58
2022/09/07 07:36:30;;;;;;;20.48;9.65;;;;;;;18.75;93.54;100854.28;5085967;28;20046;-58
2022/09/07 07:38:57;;;;;;;22.48;10.02;;;;;;;18.84;94.11;100867.59;5058965;28;20494;-57
2022/09/07 07:41:30;;;;;;;19.23;9.82;;;;;;;18.97;95.06;100872.97;5086533;28;20044;-58
2022/09/07 07:44:17;;;;;;;27.48;10.43;;;;;;;18.81;94.11;100868.84;5072272;28;20043;-58
2022/09/07 07:46:47;;;;;;;19.80;9.70;;;;;;;18.87;92.82;100875.25;5079661;28;20032;-59
2022/09/07 07:49:14;;;;;;;20.83;9.43;;;;;;;18.95;94.56;100870.47;5071355;28;20049;-58
2022/09/07 07:51:41;;;;;;;20.15;8.70;;;;;;;19.05;92.49;100877.31;5089131;28;20060;-58
2022/09/07 07:54:28;;;;;;;17.17;8.82;;;;;;;19.02;91.22;100875.84;5050964;28;20072;-58
2022/09/07 07:56:54;;;;;;;21.70;8.60;;;;;;;19.04;91.97;100876.47;5090920;28;20036;-58
2022/09/07 07:59:22;;;;;;;17.92;8.63;;;;;;;19.00;91.47;100877.94;5105125;28;20055;-59
2022/09/07 08:01:48;;;;;;;17.63;7.38;;;;;;;19.12;94.42;100867.41;5095491;28;20583;-58
2022/09/07 08:04:15;;;;;;;24.30;8.63;;;;;;;19.16;91.91;100863.25;5100467;28;20044;-58
2022/09/07 08:06:42;;;;;;;15.05;7.70;;;;;;;19.13;89.46;100869.03;5091991;28;20620;-58
2022/09/07 08:09:10;;;;;;;14.68;7.32;;;;;;;18.97;90.67;100860.38;5067125;28;20044;-58
2022/09/07 08:11:39;;;;;;;18.17;7.90;;;;;;;19.03;91.49;100852.47;5089869;28;20090;-58
2022/09/07 08:14:08;;;;;;;21.40;9.27;;;;;;;19.07;92.87;100848.38;5097855;28;20070;-58
2022/09/07 08:16:36;;;;;;;18.95;8.10;;;;;;;18.94;91.35;100860.78;5095278;28;20101;-58
2022/09/07 08:19:04;;;;;;;21.27;8.45;;;;;;;18.84;93.58;100871.09;5098352;28;21353;-58
2022/09/07 08:21:31;;;;;;;18.70;8.02;;;;;;;18.93;93.74;100869.84;5103081;27;20041;-57
2022/09/07 08:23:58;;;;;;;21.17;8.02;;;;;;;18.98;94.70;100875.44;5087233;28;20032;-57
2022/09/07 08:26:26;;;;;;;26.00;8.55;;;;;;;19.05;96.14;100871.94;5072301;28;20448;-58
2022/09/07 08:28:53;;;;;;;16.20;6.65;;;;;;;19.11;94.01;100869.25;5094421;28;20047;-58
2022/09/07 08:31:20;;;;;;;15.35;5.75;;;;;;;19.27;91.07;100867.19;5102282;28;20035;-58
2022/09/07 08:33:47;;;;;;;11.48;3.67;;;;;;;19.28;86.87;100876.88;5096383;28;20036;-58
2022/09/07 08:36:16;;;;;;;12.45;4.35;;;;;;;19.11;90.71;100881.88;5091544;28;20074;-58
2022/09/07 08:38:44;;;;;;;10.73;4.03;;;;;;;19.13;89.42;100885.16;5066077;28;20047;-56
2022/09/07 08:41:43;;;;;;;10.45;3.88;;;;;;;19.20;90.12;100891.38;5084111;28;20072;-57
2022/09/07 08:44:34;;;;;;;14.52;4.70;;;;;;;19.43;88.47;100895.47;5095665;28;20056;-57
2022/09/07 08:47:24;;;;;;;12.55;4.00;;;;;;;19.74;88.55;100894.84;5091699;28;20036;-57
2022/09/07 08:50:03;;;;;;;14.18;4.40;;;;;;;20.14;85.80;100895.53;5105653;28;20070;-57
2022/09/07 08:52:43;;;;;;;8.25;3.50;;;;;;;20.37;85.58;100891.50;5106072;28;20093;-57
2022/09/07 08:55:33;;;;;;;11.27;3.40;;;;;;;20.49;83.57;100894.34;5103975;28;20056;-57
2022/09/07 08:58:09;;;;;;;9.48;3.35;;;;;;;20.40;82.31;100893.75;5103228;28;20043;-58
2022/09/07 09:00:40;;;;;;;8.43;3.35;;;;;;;20.01;81.87;100886.69;5094575;28;20043;-58
2022/09/07 09:03:20;;;;;;;14.00;3.70;;;;;;;20.15;80.89;100890.97;5105145;28;20082;-57
2022/09/07 09:06:26;;;;;;;9.35;4.05;;;;;;;19.69;82.94;100889.25;5097624;28;20493;-57
2022/09/07 09:09:24;;;;;;;12.30;3.75;;;;;;;20.29;81.95;100881.78;5107797;28;20043;-57
2022/09/07 09:12:13;;;;;;;8.95;3.75;;;;;;;20.37;80.96;100883.41;5077188;28;20072;-57
2022/09/07 09:14:54;;;;;;;13.35;3.83;;;;;;;20.53;81.08;100885.59;5079019;28;20060;-57
2022/09/07 09:17:29;;;;;;;7.93;3.40;;;;;;;20.84;80.78;100886.66;5093872;28;20490;-57
2022/09/07 09:20:07;;;;;;;8.48;3.30;;;;;;;21.29;80.38;100893.78;5113678;28;20512;-57
2022/09/07 09:22:34;;;;;;;10.32;3.42;;;;;;;21.52;78.59;100908.53;5105895;28;20127;-57
2022/09/07 09:25:21;;;;;;;10.13;4.20;;;;;;;22.21;73.70;100915.47;5100605;28;20063;-57
2022/09/07 09:27:48;;;;;;;12.07;4.20;;;;;;;22.74;69.80;100905.84;5102948;27;20041;-57
2022/09/07 09:30:19;;;;;;;12.02;3.47;;;;;;;24.03;68.33;100907.00;5099194;28;20099;-57
2022/09/07 09:32:48;;;;;;;11.98;3.40;;;;;;;24.78;62.54;100909.78;5083794;28;21830;-57
2022/09/07 09:35:27;;;;;;;9.45;3.75;;;;;;;23.88;65.73;100907.47;5086853;28;20040;-57
2022/09/07 09:37:56;;;;;;;10.18;3.40;;;;;;;25.33;61.58;100911.78;5087343;28;20051;-57
2022/09/07 09:40:28;;;;;;;11.85;3.53;;;;;;;26.57;58.04;100917.72;5098331;28;20051;-57
2022/09/07 09:43:18;;;;;;;8.00;3.15;;;;;;;27.72;53.94;100912.91;5084860;28;26567;-57
2022/09/07 09:45:51;;;;;;;10.60;3.25;;;;;;;28.43;51.24;100919.75;5088108;28;20066;-57
2022/09/07 09:48:39;;;;;;;9.38;3.75;;;;;;;27.87;50.43;100918.47;5081105;28;20044;-59
2022/09/07 09:51:07;;;;;;;12.23;3.42;;;;;;;27.03;52.28;100919.25;5090999;28;20040;-58
2022/09/07 09:54:00;;;;;;;10.10;3.03;;;;;;;27.93;52.12;100917.41;5072521;28;20036;-56
2022/09/07 09:56:40;;;;;;;9.25;3.17;;;;;;;28.46;49.51;100919.22;5104871;28;20047;-57
2022/09/07 09:59:28;;;;;;;9.85;3.08;;;;;;;28.11;49.59;100918.03;5095854;28;20047;-58
2022/09/07 10:02:32;;;;;;;8.45;3.20;;;;;;;26.97;52.08;100924.63;5110098;28;20051;-58
2022/09/07 10:05:39;;;;;;;10.88;3.15;;;;;;;26.07;54.87;100926.13;5091030;28;20036;-57
2022/09/07 10:08:27;;;;;;;11.15;3.15;;;;;;;24.28;60.87;100930.22;5104734;28;20043;-58
2022/09/07 10:11:07;;;;;;;13.35;3.70;;;;;;;23.65;63.70;100924.56;5089244;28;20044;-58
2022/09/07 10:13:45;;;;;;;9.23;3.10;;;;;;;23.13;66.39;100925.22;5086603;28;20056;-57
2022/09/07 10:16:13;;;;;;;8.48;3.72;;;;;;;22.96;67.53;100924.25;5071807;28;20040;-58
2022/09/07 10:18:54;;;;;;;11.63;3.88;;;;;;;22.67;68.95;100928.63;5098708;28;20051;-58
2022/09/07 10:21:25;;;;;;;9.18;3.67;;;;;;;22.52;68.95;100924.47;5089281;28;20051;-58
2022/09/07 10:26:34;;;;;;;9.40;3.70;;;;;;;23.27;68.31;100925.84;5092026;27;1190306;-57
2022/09/07 10:29:37;;;;;;;10.82;4.20;;;;;;;23.06;67.43;100918.28;5109910;28;20028;-57
2022/09/07 10:32:44;;;;;;;10.15;4.30;;;;;;;22.59;68.46;100930.59;5102223;28;20047;-57
2022/09/07 10:35:37;;;;;;;32.65;16.02;;;;;;;23.03;68.78;100921.41;5117877;28;20063;-57
2022/09/07 10:38:15;;;;;;;9.65;4.30;;;;;;;23.48;67.33;100919.00;5115259;28;20439;-59
2022/09/07 10:41:04;;;;;;;10.23;4.43;;;;;;;23.90;65.81;100916.22;5130997;28;20079;-57
2022/09/07 10:43:40;;;;;;;11.00;4.10;;;;;;;24.12;64.45;100919.09;5108673;28;20048;-57
2022/09/07 10:46:16;;;;;;;11.43;4.40;;;;;;;24.70;61.99;100909.13;5109609;28;20040;-57
2022/09/07 10:49:22;;;;;;;11.75;4.45;;;;;;;23.77;63.25;100908.28;5112031;28;20476;-57
2022/09/07 10:52:17;;;;;;;10.52;3.97;;;;;;;23.88;65.57;100901.22;5105750;27;20051;-49
2022/09/07 10:55:13;;;;;;;12.63;3.88;;;;;;;24.39;61.74;100898.72;5109676;28;20047;-48
2022/09/07 10:58:19;;;;;;;9.07;3.78;;;;;;;24.44;63.14;100893.41;5125040;28;20400;-51
2022/09/07 11:01:15;;;;;;;13.30;4.28;;;;;;;23.86;64.28;100895.22;5127148;28;20386;-51
2022/09/07 11:04:22;;;;;;;9.57;4.13;;;;;;;23.91;63.39;100887.22;5088346;28;24169;-52
2022/09/07 11:06:54;;;;;;;13.98;4.30;;;;;;;23.70;64.79;100889.47;5105511;28;20513;-56
2022/09/07 11:09:33;;;;;;;12.75;4.70;;;;;;;23.79;63.79;100887.19;5107412;28;20098;-54
2022/09/07 11:12:13;;;;;;;12.75;4.88;;;;;;;23.64;64.32;100886.88;5123187;28;20071;-55
2022/09/07 11:14:46;;;;;;;12.25;4.88;;;;;;;23.34;65.34;100885.16;5129151;27;20067;-56
2022/09/07 11:17:17;;;;;;;15.55;5.20;;;;;;;23.16;65.56;100880.66;5115198;27;20043;-56
2022/09/07 11:19:51;;;;;;;14.23;5.60;;;;;;;22.95;65.92;100887.41;5101588;28;20051;-55
2022/09/07 11:22:28;;;;;;;12.15;4.80;;;;;;;22.90;67.16;100887.28;5093853;28;20055;-51
2022/09/07 11:25:03;;;;;;;13.80;5.15;;;;;;;22.99;66.74;100883.19;5100604;28;20113;-50
2022/09/07 11:27:57;;;;;;;12.10;4.45;;;;;;;23.74;64.42;100877.09;5125186;28;20126;-50
2022/09/07 11:30:30;;;;;;;10.23;4.75;;;;;;;24.27;62.97;100883.34;5128286;28;20054;-52
2022/09/07 11:33:03;;;;;;;15.07;4.60;;;;;;;24.34;63.80;100880.50;5111930;27;20788;-48
2022/09/07 11:35:35;;;;;;;13.13;5.20;;;;;;;24.15;61.36;100882.56;5119547;28;20043;-48
2022/09/07 11:38:13;;;;;;;12.52;4.85;;;;;;;24.38;61.30;100868.09;5078881;28;20036;-56
2022/09/07 11:41:09;;;;;;;11.95;4.72;;;;;;;24.46;59.94;100875.00;5095947;28;20139;-55
2022/09/07 11:43:42;;;;;;;13.43;5.20;;;;;;;24.31;60.58;100868.22;5112165;28;20044;-55
2022/09/07 11:46:22;;;;;;;16.20;5.43;;;;;;;23.98;61.08;100866.25;5116183;28;20040;-55
2022/09/07 11:48:53;;;;;;;12.05;5.10;;;;;;;23.68;61.90;100866.38;5101438;28;20044;-55
2022/09/07 11:51:29;;;;;;;14.82;5.30;;;;;;;23.72;61.97;100862.97;5107865;28;20053;-55
2022/09/07 11:54:01;;;;;;;13.77;4.57;;;;;;;23.68;61.19;100864.50;5088147;27;20050;-55